sensor_id;sensor_type;location;lat;lon;timestamp;temperature;humidity
65568;DHT22;52211;50.154;8.682;2023-03-20T00:01:24;13.80;60.40
65568;DHT22;52211;50.154;8.682;2023-03-20T00:03:56;13.80;60.40
65568;DHT22;52211;50.154;8.682;2023-03-20T00:06:25;13.80;60.40
65568;DHT22;52211;50.154;8.682;2023-03-20T00:08:57;13.80;60.50
65568;DHT22;52211;50.154;8.682;2023-03-20T00:11:43;13.70;60.50
65568;DHT22;52211;50.154;8.682;2023-03-20T00:14:15;13.70;60.50
65568;DHT22;52211;50.154;8.682;2023-03-20T00:16:52;13.70;60.40
65568;DHT22;52211;50.154;8.682;2023-03-20T00:19:26;13.70;60.40
65568;DHT22;52211;50.154;8.682;2023-03-20T00:22:00;13.60;60.40
65568;DHT22;52211;50.154;8.682;2023-03-20T00:24:31;13.60;60.60
65568;DHT22;52211;50.154;8.682;2023-03-20T00:27:01;13.50;61.10
65568;DHT22;52211;50.154;8.682;2023-03-20T00:29:30;13.50;60.70
65568;DHT22;52211;50.154;8.682;2023-03-20T00:32:00;13.50;60.80
65568;DHT22;52211;50.154;8.682;2023-03-20T00:34:28;13.40;60.70
65568;DHT22;52211;50.154;8.682;2023-03-20T00:36:58;13.40;60.90
65568;DHT22;52211;50.154;8.682;2023-03-20T00:39:28;13.40;60.90
65568;DHT22;52211;50.154;8.682;2023-03-20T00:42:02;13.40;61.00
65568;DHT22;52211;50.154;8.682;2023-03-20T00:44:51;13.40;61.10
65568;DHT22;52211;50.154;8.682;2023-03-20T00:47:24;13.40;61.80
65568;DHT22;52211;50.154;8.682;2023-03-20T00:49:53;13.30;61.10
65568;DHT22;52211;50.154;8.682;2023-03-20T00:52:22;13.30;61.10
65568;DHT22;52211;50.154;8.682;2023-03-20T00:54:54;13.30;61.30
65568;DHT22;52211;50.154;8.682;2023-03-20T00:57:26;13.30;61.30
65568;DHT22;52211;50.154;8.682;2023-03-20T01:00:03;13.30;61.30
65568;DHT22;52211;50.154;8.682;2023-03-20T01:02:36;13.30;61.50
65568;DHT22;52211;50.154;8.682;2023-03-20T01:05:06;13.30;61.20
65568;DHT22;52211;50.154;8.682;2023-03-20T01:07:38;13.30;61.20
65568;DHT22;52211;50.154;8.682;2023-03-20T01:10:10;13.20;61.30
65568;DHT22;52211;50.154;8.682;2023-03-20T01:12:43;13.20;61.30
65568;DHT22;52211;50.154;8.682;2023-03-20T01:15:22;13.20;61.40
65568;DHT22;52211;50.154;8.682;2023-03-20T01:17:54;13.20;61.90
65568;DHT22;52211;50.154;8.682;2023-03-20T01:20:27;13.20;61.50
65568;DHT22;52211;50.154;8.682;2023-03-20T01:22:59;13.20;61.60
65568;DHT22;52211;50.154;8.682;2023-03-20T01:25:26;13.20;61.60
65568;DHT22;52211;50.154;8.682;2023-03-20T01:27:56;13.20;61.60
65568;DHT22;52211;50.154;8.682;2023-03-20T01:30:29;13.20;61.60
65568;DHT22;52211;50.154;8.682;2023-03-20T01:33:00;13.20;61.60
65568;DHT22;52211;50.154;8.682;2023-03-20T01:35:38;13.10;61.60
65568;DHT22;52211;50.154;8.682;2023-03-20T01:38:27;13.10;61.60
65568;DHT22;52211;50.154;8.682;2023-03-20T01:41:06;13.10;62.30
65568;DHT22;52211;50.154;8.682;2023-03-20T01:43:38;13.10;62.10
65568;DHT22;52211;50.154;8.682;2023-03-20T01:51:30;13.10;62.50
65568;DHT22;52211;50.154;8.682;2023-03-20T01:54:13;13.10;62.20
65568;DHT22;52211;50.154;8.682;2023-03-20T01:57:16;13.10;62.00
65568;DHT22;52211;50.154;8.682;2023-03-20T01:59:59;13.00;62.00
65568;DHT22;52211;50.154;8.682;2023-03-20T02:02:42;13.00;62.00
65568;DHT22;52211;50.154;8.682;2023-03-20T02:05:37;13.00;61.90
65568;DHT22;52211;50.154;8.682;2023-03-20T02:08:26;13.00;61.90
65568;DHT22;52211;50.154;8.682;2023-03-20T02:10:59;13.00;62.40
65568;DHT22;52211;50.154;8.682;2023-03-20T02:13:30;13.00;62.00
65568;DHT22;52211;50.154;8.682;2023-03-20T02:16:04;13.00;62.00
65568;DHT22;52211;50.154;8.682;2023-03-20T02:19:16;13.00;62.10
65568;DHT22;52211;50.154;8.682;2023-03-20T02:35:41;12.90;62.40
65568;DHT22;52211;50.154;8.682;2023-03-20T02:41:53;12.80;62.50
65568;DHT22;52211;50.154;8.682;2023-03-20T02:48:13;12.80;62.30
65568;DHT22;52211;50.154;8.682;2023-03-20T02:53:54;12.70;62.30
65568;DHT22;52211;50.154;8.682;2023-03-20T02:59:45;12.70;62.70
65568;DHT22;52211;50.154;8.682;2023-03-20T03:02:40;12.70;62.50
65568;DHT22;52211;50.154;8.682;2023-03-20T03:05:20;12.70;62.90
65568;DHT22;52211;50.154;8.682;2023-03-20T03:07:54;12.60;62.60
65568;DHT22;52211;50.154;8.682;2023-03-20T03:10:56;12.70;62.50
65568;DHT22;52211;50.154;8.682;2023-03-20T03:13:28;12.60;63.10
65568;DHT22;52211;50.154;8.682;2023-03-20T03:16:06;12.70;62.60
65568;DHT22;52211;50.154;8.682;2023-03-20T03:18:39;12.60;62.60
65568;DHT22;52211;50.154;8.682;2023-03-20T03:21:10;12.70;62.60
65568;DHT22;52211;50.154;8.682;2023-03-20T03:23:48;12.70;62.60
65568;DHT22;52211;50.154;8.682;2023-03-20T03:26:24;12.70;62.90
65568;DHT22;52211;50.154;8.682;2023-03-20T03:29:06;12.70;63.00
65568;DHT22;52211;50.154;8.682;2023-03-20T03:31:40;12.70;63.00
65568;DHT22;52211;50.154;8.682;2023-03-20T03:34:12;12.70;62.80
65568;DHT22;52211;50.154;8.682;2023-03-20T03:36:47;12.70;63.60
65568;DHT22;52211;50.154;8.682;2023-03-20T03:45:18;12.70;63.40
65568;DHT22;52211;50.154;8.682;2023-03-20T03:48:00;12.70;63.00
65568;DHT22;52211;50.154;8.682;2023-03-20T03:50:42;12.80;63.20
65568;DHT22;52211;50.154;8.682;2023-03-20T03:53:29;12.80;62.90
65568;DHT22;52211;50.154;8.682;2023-03-20T03:56:09;12.80;63.00
65568;DHT22;52211;50.154;8.682;2023-03-20T03:58:47;12.80;63.10
65568;DHT22;52211;50.154;8.682;2023-03-20T04:01:22;12.80;62.90
65568;DHT22;52211;50.154;8.682;2023-03-20T04:03:56;12.80;62.80
65568;DHT22;52211;50.154;8.682;2023-03-20T04:06:27;12.80;62.90
65568;DHT22;52211;50.154;8.682;2023-03-20T04:08:59;12.80;62.90
65568;DHT22;52211;50.154;8.682;2023-03-20T04:11:28;12.70;62.90
65568;DHT22;52211;50.154;8.682;2023-03-20T04:13:57;12.70;62.80
65568;DHT22;52211;50.154;8.682;2023-03-20T04:16:24;12.70;62.90
65568;DHT22;52211;50.154;8.682;2023-03-20T04:18:56;12.70;62.90
65568;DHT22;52211;50.154;8.682;2023-03-20T04:21:26;12.70;62.90
65568;DHT22;52211;50.154;8.682;2023-03-20T04:23:53;12.60;63.10
65568;DHT22;52211;50.154;8.682;2023-03-20T04:26:22;12.60;63.10
65568;DHT22;52211;50.154;8.682;2023-03-20T04:28:50;12.60;63.10
65568;DHT22;52211;50.154;8.682;2023-03-20T04:31:42;12.60;63.10
65568;DHT22;52211;50.154;8.682;2023-03-20T04:34:22;12.60;63.20
65568;DHT22;52211;50.154;8.682;2023-03-20T04:37:13;12.60;63.10
65568;DHT22;52211;50.154;8.682;2023-03-20T04:39:48;12.60;63.20
65568;DHT22;52211;50.154;8.682;2023-03-20T04:42:20;12.60;63.20
65568;DHT22;52211;50.154;8.682;2023-03-20T04:44:54;12.60;63.30
65568;DHT22;52211;50.154;8.682;2023-03-20T04:47:22;12.70;63.40
65568;DHT22;52211;50.154;8.682;2023-03-20T04:49:52;12.70;63.40
65568;DHT22;52211;50.154;8.682;2023-03-20T04:52:19;12.70;63.40
65568;DHT22;52211;50.154;8.682;2023-03-20T04:54:46;12.70;63.40
65568;DHT22;52211;50.154;8.682;2023-03-20T04:57:13;12.70;63.50
65568;DHT22;52211;50.154;8.682;2023-03-20T04:59:40;12.70;63.50
65568;DHT22;52211;50.154;8.682;2023-03-20T05:02:12;12.70;63.60
65568;DHT22;52211;50.154;8.682;2023-03-20T05:04:46;12.70;63.60
65568;DHT22;52211;50.154;8.682;2023-03-20T05:07:15;12.80;63.80
65568;DHT22;52211;50.154;8.682;2023-03-20T05:10:13;12.80;63.60
65568;DHT22;52211;50.154;8.682;2023-03-20T05:13:00;12.80;64.10
65568;DHT22;52211;50.154;8.682;2023-03-20T05:15:45;12.80;64.10
65568;DHT22;52211;50.154;8.682;2023-03-20T05:18:35;12.80;63.50
65568;DHT22;52211;50.154;8.682;2023-03-20T05:21:32;12.80;63.60
65568;DHT22;52211;50.154;8.682;2023-03-20T05:24:21;12.80;63.60
65568;DHT22;52211;50.154;8.682;2023-03-20T05:27:14;12.80;63.70
65568;DHT22;52211;50.154;8.682;2023-03-20T05:30:02;12.80;63.70
65568;DHT22;52211;50.154;8.682;2023-03-20T05:32:49;12.80;63.70
65568;DHT22;52211;50.154;8.682;2023-03-20T05:35:33;12.80;63.70
65568;DHT22;52211;50.154;8.682;2023-03-20T05:38:16;12.80;63.70
65568;DHT22;52211;50.154;8.682;2023-03-20T05:40:57;12.80;63.70
65568;DHT22;52211;50.154;8.682;2023-03-20T05:43:42;12.80;63.90
65568;DHT22;52211;50.154;8.682;2023-03-20T05:46:35;12.80;63.80
65568;DHT22;52211;50.154;8.682;2023-03-20T05:49:16;12.80;63.80
65568;DHT22;52211;50.154;8.682;2023-03-20T05:51:54;12.90;63.80
65568;DHT22;52211;50.154;8.682;2023-03-20T05:54:35;12.90;64.00
65568;DHT22;52211;50.154;8.682;2023-03-20T05:57:15;12.90;63.90
65568;DHT22;52211;50.154;8.682;2023-03-20T05:59:56;12.90;63.90
65568;DHT22;52211;50.154;8.682;2023-03-20T06:02:44;12.90;63.90
65568;DHT22;52211;50.154;8.682;2023-03-20T06:05:45;13.00;63.90
65568;DHT22;52211;50.154;8.682;2023-03-20T06:08:15;13.00;63.80
65568;DHT22;52211;50.154;8.682;2023-03-20T06:10:44;13.00;63.80
65568;DHT22;52211;50.154;8.682;2023-03-20T06:13:11;13.00;63.80
65568;DHT22;52211;50.154;8.682;2023-03-20T06:15:39;13.00;63.90
65568;DHT22;52211;50.154;8.682;2023-03-20T06:18:15;13.00;63.90
65568;DHT22;52211;50.154;8.682;2023-03-20T06:20:42;13.00;64.00
65568;DHT22;52211;50.154;8.682;2023-03-20T06:23:12;13.10;64.00
65568;DHT22;52211;50.154;8.682;2023-03-20T06:25:42;13.00;64.00
65568;DHT22;52211;50.154;8.682;2023-03-20T06:28:14;13.10;64.00
65568;DHT22;52211;50.154;8.682;2023-03-20T06:30:45;13.10;64.00
65568;DHT22;52211;50.154;8.682;2023-03-20T06:33:17;13.10;64.00
65568;DHT22;52211;50.154;8.682;2023-03-20T06:35:55;13.20;64.10
65568;DHT22;52211;50.154;8.682;2023-03-20T06:38:27;13.10;64.00
65568;DHT22;52211;50.154;8.682;2023-03-20T06:41:03;13.20;64.10
65568;DHT22;52211;50.154;8.682;2023-03-20T06:43:33;13.20;64.10
65568;DHT22;52211;50.154;8.682;2023-03-20T06:46:00;13.20;64.10
65568;DHT22;52211;50.154;8.682;2023-03-20T06:48:30;13.20;64.10
65568;DHT22;52211;50.154;8.682;2023-03-20T06:50:58;13.20;64.10
65568;DHT22;52211;50.154;8.682;2023-03-20T06:53:32;13.20;64.00
65568;DHT22;52211;50.154;8.682;2023-03-20T06:56:05;13.20;64.00
65568;DHT22;52211;50.154;8.682;2023-03-20T06:58:40;13.20;64.00
65568;DHT22;52211;50.154;8.682;2023-03-20T07:01:10;13.20;63.90
65568;DHT22;52211;50.154;8.682;2023-03-20T07:03:41;13.20;64.00
65568;DHT22;52211;50.154;8.682;2023-03-20T07:06:11;13.30;64.00
65568;DHT22;52211;50.154;8.682;2023-03-20T07:08:41;13.30;64.00
65568;DHT22;52211;50.154;8.682;2023-03-20T07:11:08;13.30;64.00
65568;DHT22;52211;50.154;8.682;2023-03-20T07:13:35;13.30;64.00
65568;DHT22;52211;50.154;8.682;2023-03-20T07:16:12;13.30;64.00
65568;DHT22;52211;50.154;8.682;2023-03-20T07:18:44;13.30;63.90
65568;DHT22;52211;50.154;8.682;2023-03-20T07:21:19;13.30;63.90
65568;DHT22;52211;50.154;8.682;2023-03-20T07:23:51;13.30;64.00
65568;DHT22;52211;50.154;8.682;2023-03-20T07:26:21;13.40;63.90
65568;DHT22;52211;50.154;8.682;2023-03-20T07:28:53;13.40;63.90
65568;DHT22;52211;50.154;8.682;2023-03-20T07:31:26;13.40;63.90
65568;DHT22;52211;50.154;8.682;2023-03-20T07:34:31;13.40;63.80
65568;DHT22;52211;50.154;8.682;2023-03-20T07:37:02;13.40;63.70
65568;DHT22;52211;50.154;8.682;2023-03-20T07:39:32;13.40;63.70
65568;DHT22;52211;50.154;8.682;2023-03-20T07:42:28;13.40;63.70
65568;DHT22;52211;50.154;8.682;2023-03-20T07:45:11;13.40;63.60
65568;DHT22;52211;50.154;8.682;2023-03-20T07:47:45;13.50;63.60
65568;DHT22;52211;50.154;8.682;2023-03-20T07:50:14;13.40;63.50
65568;DHT22;52211;50.154;8.682;2023-03-20T07:52:48;13.40;63.50
65568;DHT22;52211;50.154;8.682;2023-03-20T07:55:21;13.40;63.60
65568;DHT22;52211;50.154;8.682;2023-03-20T07:57:51;13.40;63.50
65568;DHT22;52211;50.154;8.682;2023-03-20T08:00:25;13.50;63.60
65568;DHT22;52211;50.154;8.682;2023-03-20T08:02:54;13.50;63.50
65568;DHT22;52211;50.154;8.682;2023-03-20T08:05:23;13.50;63.40
65568;DHT22;52211;50.154;8.682;2023-03-20T08:07:53;13.50;63.40
65568;DHT22;52211;50.154;8.682;2023-03-20T08:10:22;13.50;63.30
65568;DHT22;52211;50.154;8.682;2023-03-20T08:12:51;13.50;63.20
65568;DHT22;52211;50.154;8.682;2023-03-20T08:15:21;13.50;63.20
65568;DHT22;52211;50.154;8.682;2023-03-20T08:17:48;13.50;63.20
65568;DHT22;52211;50.154;8.682;2023-03-20T08:20:17;13.50;63.30
65568;DHT22;52211;50.154;8.682;2023-03-20T08:22:45;13.50;63.30
65568;DHT22;52211;50.154;8.682;2023-03-20T08:25:17;13.50;63.30
65568;DHT22;52211;50.154;8.682;2023-03-20T08:27:47;13.50;63.20
65568;DHT22;52211;50.154;8.682;2023-03-20T08:30:17;13.50;63.20
65568;DHT22;52211;50.154;8.682;2023-03-20T08:32:43;13.50;63.20
65568;DHT22;52211;50.154;8.682;2023-03-20T08:35:10;13.50;63.20
65568;DHT22;52211;50.154;8.682;2023-03-20T08:37:58;13.50;63.20
65568;DHT22;52211;50.154;8.682;2023-03-20T08:40:30;13.50;63.30
65568;DHT22;52211;50.154;8.682;2023-03-20T08:42:57;13.50;63.30
65568;DHT22;52211;50.154;8.682;2023-03-20T08:45:29;13.40;63.30
65568;DHT22;52211;50.154;8.682;2023-03-20T08:47:58;13.50;63.50
65568;DHT22;52211;50.154;8.682;2023-03-20T08:50:28;13.50;63.50
65568;DHT22;52211;50.154;8.682;2023-03-20T08:52:57;13.50;63.40
65568;DHT22;52211;50.154;8.682;2023-03-20T08:55:27;13.50;63.30
65568;DHT22;52211;50.154;8.682;2023-03-20T08:57:54;13.50;63.40
65568;DHT22;52211;50.154;8.682;2023-03-20T09:00:23;13.50;63.40
65568;DHT22;52211;50.154;8.682;2023-03-20T09:02:52;13.50;63.40
65568;DHT22;52211;50.154;8.682;2023-03-20T09:05:22;13.60;63.50
65568;DHT22;52211;50.154;8.682;2023-03-20T09:07:49;13.60;63.40
65568;DHT22;52211;50.154;8.682;2023-03-20T09:10:18;13.60;63.40
65568;DHT22;52211;50.154;8.682;2023-03-20T09:12:48;13.60;63.40
65568;DHT22;52211;50.154;8.682;2023-03-20T09:15:19;13.70;63.40
65568;DHT22;52211;50.154;8.682;2023-03-20T09:17:48;13.70;63.40
65568;DHT22;52211;50.154;8.682;2023-03-20T09:20:15;13.70;63.40
65568;DHT22;52211;50.154;8.682;2023-03-20T09:22:47;13.70;63.40
65568;DHT22;52211;50.154;8.682;2023-03-20T09:25:16;13.70;63.50
65568;DHT22;52211;50.154;8.682;2023-03-20T09:27:45;13.70;63.50
65568;DHT22;52211;50.154;8.682;2023-03-20T09:30:12;13.80;63.50
65568;DHT22;52211;50.154;8.682;2023-03-20T09:32:39;13.80;63.60
65568;DHT22;52211;50.154;8.682;2023-03-20T09:35:07;13.80;63.70
65568;DHT22;52211;50.154;8.682;2023-03-20T09:37:39;13.90;63.70
65568;DHT22;52211;50.154;8.682;2023-03-20T09:40:06;14.00;63.70
65568;DHT22;52211;50.154;8.682;2023-03-20T09:45:38;14.20;63.70
65568;DHT22;52211;50.154;8.682;2023-03-20T09:48:18;14.30;63.70
65568;DHT22;52211;50.154;8.682;2023-03-20T09:54:03;14.50;63.50
65568;DHT22;52211;50.154;8.682;2023-03-20T09:56:36;14.60;63.40
65568;DHT22;52211;50.154;8.682;2023-03-20T09:59:10;14.60;63.30
65568;DHT22;52211;50.154;8.682;2023-03-20T10:02:12;14.70;63.20
65568;DHT22;52211;50.154;8.682;2023-03-20T10:04:43;14.80;63.20
65568;DHT22;52211;50.154;8.682;2023-03-20T10:07:14;14.80;63.10
65568;DHT22;52211;50.154;8.682;2023-03-20T10:09:43;14.90;63.20
65568;DHT22;52211;50.154;8.682;2023-03-20T10:12:54;15.00;63.10
65568;DHT22;52211;50.154;8.682;2023-03-20T10:15:48;15.00;63.00
65568;DHT22;52211;50.154;8.682;2023-03-20T10:18:26;15.10;62.90
65568;DHT22;52211;50.154;8.682;2023-03-20T10:21:09;15.20;62.90
65568;DHT22;52211;50.154;8.682;2023-03-20T10:26:43;15.30;62.70
65568;DHT22;52211;50.154;8.682;2023-03-20T10:32:12;15.50;62.70
65568;DHT22;52211;50.154;8.682;2023-03-20T10:37:56;15.70;62.60
65568;DHT22;52211;50.154;8.682;2023-03-20T10:40:53;15.80;62.60
65568;DHT22;52211;50.154;8.682;2023-03-20T10:43:29;15.90;62.50
65568;DHT22;52211;50.154;8.682;2023-03-20T10:46:10;16.00;62.40
65568;DHT22;52211;50.154;8.682;2023-03-20T10:51:50;16.20;61.80
65568;DHT22;52211;50.154;8.682;2023-03-20T10:57:33;16.30;60.90
65568;DHT22;52211;50.154;8.682;2023-03-20T11:00:04;16.30;60.80
65568;DHT22;52211;50.154;8.682;2023-03-20T11:02:39;16.30;60.80
65568;DHT22;52211;50.154;8.682;2023-03-20T11:05:32;16.30;60.90
65568;DHT22;52211;50.154;8.682;2023-03-20T11:08:11;16.40;61.30
65568;DHT22;52211;50.154;8.682;2023-03-20T11:10:42;16.60;61.40
65568;DHT22;52211;50.154;8.682;2023-03-20T11:13:47;16.80;61.60
65568;DHT22;52211;50.154;8.682;2023-03-20T11:18:52;17.20;60.60
65568;DHT22;52211;50.154;8.682;2023-03-20T11:21:28;17.30;60.20
65568;DHT22;52211;50.154;8.682;2023-03-20T11:24:00;17.40;59.80
65568;DHT22;52211;50.154;8.682;2023-03-20T11:26:38;17.40;59.30
65568;DHT22;52211;50.154;8.682;2023-03-20T11:29:38;17.40;59.00
65568;DHT22;52211;50.154;8.682;2023-03-20T11:32:48;17.30;58.90
65568;DHT22;52211;50.154;8.682;2023-03-20T11:35:28;17.20;58.50
65568;DHT22;52211;50.154;8.682;2023-03-20T11:40:41;17.10;58.50
65568;DHT22;52211;50.154;8.682;2023-03-20T11:43:13;17.10;59.10
65568;DHT22;52211;50.154;8.682;2023-03-20T11:45:48;17.10;59.20
65568;DHT22;52211;50.154;8.682;2023-03-20T11:48:38;17.20;59.50
65568;DHT22;52211;50.154;8.682;2023-03-20T11:51:09;17.30;59.30
65568;DHT22;52211;50.154;8.682;2023-03-20T12:01:24;17.70;58.70
65568;DHT22;52211;50.154;8.682;2023-03-20T12:06:45;17.90;58.60
65568;DHT22;52211;50.154;8.682;2023-03-20T12:09:36;18.00;58.20
65568;DHT22;52211;50.154;8.682;2023-03-20T12:18:13;18.50;57.40
65568;DHT22;52211;50.154;8.682;2023-03-20T12:21:08;18.60;57.20
65568;DHT22;52211;50.154;8.682;2023-03-20T12:23:52;18.70;56.40
65568;DHT22;52211;50.154;8.682;2023-03-20T12:29:28;18.90;56.60
65568;DHT22;52211;50.154;8.682;2023-03-20T12:32:02;19.00;55.90
65568;DHT22;52211;50.154;8.682;2023-03-20T12:34:43;19.00;55.80
65568;DHT22;52211;50.154;8.682;2023-03-20T12:37:18;19.00;55.60
65568;DHT22;52211;50.154;8.682;2023-03-20T12:45:00;18.80;54.90
65568;DHT22;52211;50.154;8.682;2023-03-20T12:59:16;18.20;55.20
65568;DHT22;52211;50.154;8.682;2023-03-20T13:02:00;18.10;55.00
65568;DHT22;52211;50.154;8.682;2023-03-20T13:05:01;18.00;55.30
65568;DHT22;52211;50.154;8.682;2023-03-20T13:13:47;17.90;55.20
65568;DHT22;52211;50.154;8.682;2023-03-20T13:16:30;17.90;55.10
65568;DHT22;52211;50.154;8.682;2023-03-20T13:19:14;17.80;54.80
65568;DHT22;52211;50.154;8.682;2023-03-20T13:39:17;17.50;54.30
65568;DHT22;52211;50.154;8.682;2023-03-20T13:41:48;17.50;53.70
65568;DHT22;52211;50.154;8.682;2023-03-20T13:44:21;17.50;54.20
65568;DHT22;52211;50.154;8.682;2023-03-20T13:47:00;17.40;53.80
65568;DHT22;52211;50.154;8.682;2023-03-20T13:50:11;17.40;53.80
65568;DHT22;52211;50.154;8.682;2023-03-20T13:53:00;17.30;53.20
65568;DHT22;52211;50.154;8.682;2023-03-20T13:55:50;17.30;53.40
65568;DHT22;52211;50.154;8.682;2023-03-20T13:58:57;17.20;53.30
65568;DHT22;52211;50.154;8.682;2023-03-20T14:04:34;17.20;53.40
65568;DHT22;52211;50.154;8.682;2023-03-20T14:07:14;17.20;53.40
65568;DHT22;52211;50.154;8.682;2023-03-20T14:12:58;17.10;52.30
65568;DHT22;52211;50.154;8.682;2023-03-20T14:15:35;17.10;52.70
65568;DHT22;52211;50.154;8.682;2023-03-20T14:18:15;17.10;52.50
65568;DHT22;52211;50.154;8.682;2023-03-20T14:23:43;17.00;52.30
65568;DHT22;52211;50.154;8.682;2023-03-20T14:26:25;17.00;51.90
65568;DHT22;52211;50.154;8.682;2023-03-20T14:29:00;17.00;52.40
65568;DHT22;52211;50.154;8.682;2023-03-20T14:31:41;16.90;51.30
65568;DHT22;52211;50.154;8.682;2023-03-20T14:37:00;16.80;51.80
65568;DHT22;52211;50.154;8.682;2023-03-20T14:42:20;16.80;51.30
65568;DHT22;52211;50.154;8.682;2023-03-20T14:47:44;16.70;51.30
65568;DHT22;52211;50.154;8.682;2023-03-20T14:53:24;16.60;51.30
65568;DHT22;52211;50.154;8.682;2023-03-20T14:56:12;16.60;51.70
65568;DHT22;52211;50.154;8.682;2023-03-20T14:59:02;16.60;50.70
65568;DHT22;52211;50.154;8.682;2023-03-20T15:07:04;16.60;51.30
65568;DHT22;52211;50.154;8.682;2023-03-20T15:09:45;16.50;51.20
65568;DHT22;52211;50.154;8.682;2023-03-20T15:12:20;16.60;51.40
65568;DHT22;52211;50.154;8.682;2023-03-20T15:14:58;16.50;51.30
65568;DHT22;52211;50.154;8.682;2023-03-20T15:17:38;16.50;51.00
65568;DHT22;52211;50.154;8.682;2023-03-20T15:22:59;16.50;50.90
65568;DHT22;52211;50.154;8.682;2023-03-20T15:25:31;16.50;50.90
65568;DHT22;52211;50.154;8.682;2023-03-20T15:28:07;16.50;51.00
65568;DHT22;52211;50.154;8.682;2023-03-20T15:30:50;16.50;50.60
65568;DHT22;52211;50.154;8.682;2023-03-20T15:33:35;16.40;50.80
65568;DHT22;52211;50.154;8.682;2023-03-20T15:36:19;16.40;50.50
65568;DHT22;52211;50.154;8.682;2023-03-20T15:38:51;16.40;50.30
65568;DHT22;52211;50.154;8.682;2023-03-20T15:41:25;16.40;50.90
65568;DHT22;52211;50.154;8.682;2023-03-20T15:44:08;16.30;50.60
65568;DHT22;52211;50.154;8.682;2023-03-20T15:47:02;16.30;50.50
65568;DHT22;52211;50.154;8.682;2023-03-20T15:49:39;16.30;49.80
65568;DHT22;52211;50.154;8.682;2023-03-20T15:52:23;16.30;50.60
65568;DHT22;52211;50.154;8.682;2023-03-20T15:55:11;16.20;49.80
65568;DHT22;52211;50.154;8.682;2023-03-20T15:57:43;16.20;50.30
65568;DHT22;52211;50.154;8.682;2023-03-20T16:02:52;16.10;50.30
65568;DHT22;52211;50.154;8.682;2023-03-20T16:05:29;16.00;50.50
65568;DHT22;52211;50.154;8.682;2023-03-20T16:08:23;16.00;50.30
65568;DHT22;52211;50.154;8.682;2023-03-20T16:10:57;15.90;50.00
65568;DHT22;52211;50.154;8.682;2023-03-20T16:13:34;15.80;49.40
65568;DHT22;52211;50.154;8.682;2023-03-20T16:16:12;15.70;49.60
65568;DHT22;52211;50.154;8.682;2023-03-20T16:18:44;15.70;49.90
65568;DHT22;52211;50.154;8.682;2023-03-20T16:21:23;15.60;49.80
65568;DHT22;52211;50.154;8.682;2023-03-20T16:23:57;15.70;49.50
65568;DHT22;52211;50.154;8.682;2023-03-20T16:26:28;15.60;49.50
65568;DHT22;52211;50.154;8.682;2023-03-20T16:28:59;15.60;49.40
65568;DHT22;52211;50.154;8.682;2023-03-20T16:31:33;15.50;49.10
65568;DHT22;52211;50.154;8.682;2023-03-20T16:34:16;15.50;49.10
65568;DHT22;52211;50.154;8.682;2023-03-20T16:36:53;15.50;49.10
65568;DHT22;52211;50.154;8.682;2023-03-20T16:39:26;15.40;49.10
65568;DHT22;52211;50.154;8.682;2023-03-20T16:42:07;15.40;48.90
65568;DHT22;52211;50.154;8.682;2023-03-20T16:44:40;15.40;48.70
65568;DHT22;52211;50.154;8.682;2023-03-20T16:47:19;15.30;48.90
65568;DHT22;52211;50.154;8.682;2023-03-20T16:50:02;15.30;48.70
65568;DHT22;52211;50.154;8.682;2023-03-20T16:52:40;15.30;48.70
65568;DHT22;52211;50.154;8.682;2023-03-20T16:55:20;15.20;48.70
65568;DHT22;52211;50.154;8.682;2023-03-20T16:57:53;15.20;48.50
65568;DHT22;52211;50.154;8.682;2023-03-20T17:00:31;15.20;48.70
65568;DHT22;52211;50.154;8.682;2023-03-20T17:03:30;15.20;48.70
65568;DHT22;52211;50.154;8.682;2023-03-20T17:09:25;15.10;48.00
65568;DHT22;52211;50.154;8.682;2023-03-20T17:12:16;15.10;48.50
65568;DHT22;52211;50.154;8.682;2023-03-20T17:14:46;15.00;47.80
65568;DHT22;52211;50.154;8.682;2023-03-20T17:17:18;15.00;48.50
65568;DHT22;52211;50.154;8.682;2023-03-20T17:19:50;15.00;48.10
65568;DHT22;52211;50.154;8.682;2023-03-20T17:22:21;14.90;48.20
65568;DHT22;52211;50.154;8.682;2023-03-20T17:24:54;14.90;48.20
65568;DHT22;52211;50.154;8.682;2023-03-20T17:27:24;14.80;48.20
65568;DHT22;52211;50.154;8.682;2023-03-20T17:29:56;14.80;48.20
65568;DHT22;52211;50.154;8.682;2023-03-20T17:32:24;14.80;48.20
65568;DHT22;52211;50.154;8.682;2023-03-20T17:34:53;14.80;48.20
65568;DHT22;52211;50.154;8.682;2023-03-20T17:37:27;14.80;48.20
65568;DHT22;52211;50.154;8.682;2023-03-20T17:39:59;14.80;48.10
65568;DHT22;52211;50.154;8.682;2023-03-20T17:42:31;14.70;48.20
65568;DHT22;52211;50.154;8.682;2023-03-20T17:45:01;14.70;48.20
65568;DHT22;52211;50.154;8.682;2023-03-20T17:47:31;14.70;48.40
65568;DHT22;52211;50.154;8.682;2023-03-20T17:50:02;14.60;48.20
65568;DHT22;52211;50.154;8.682;2023-03-20T17:52:30;14.60;48.90
65568;DHT22;52211;50.154;8.682;2023-03-20T17:55:01;14.60;48.20
65568;DHT22;52211;50.154;8.682;2023-03-20T17:57:37;14.50;48.30
65568;DHT22;52211;50.154;8.682;2023-03-20T18:00:09;14.50;48.20
65568;DHT22;52211;50.154;8.682;2023-03-20T18:02:45;14.40;48.20
65568;DHT22;52211;50.154;8.682;2023-03-20T18:05:15;14.40;48.40
65568;DHT22;52211;50.154;8.682;2023-03-20T18:07:49;14.40;48.40
65568;DHT22;52211;50.154;8.682;2023-03-20T18:10:25;14.40;48.50
65568;DHT22;52211;50.154;8.682;2023-03-20T18:12:58;14.40;48.40
65568;DHT22;52211;50.154;8.682;2023-03-20T18:15:25;14.40;48.40
65568;DHT22;52211;50.154;8.682;2023-03-20T18:17:52;14.40;48.30
65568;DHT22;52211;50.154;8.682;2023-03-20T18:20:25;14.40;48.40
65568;DHT22;52211;50.154;8.682;2023-03-20T18:22:55;14.30;48.30
65568;DHT22;52211;50.154;8.682;2023-03-20T18:25:25;14.30;48.30
65568;DHT22;52211;50.154;8.682;2023-03-20T18:27:53;14.30;48.40
65568;DHT22;52211;50.154;8.682;2023-03-20T18:30:44;14.30;48.50
65568;DHT22;52211;50.154;8.682;2023-03-20T18:33:14;14.20;48.30
65568;DHT22;52211;50.154;8.682;2023-03-20T18:35:45;14.20;48.70
65568;DHT22;52211;50.154;8.682;2023-03-20T18:38:14;14.20;48.70
65568;DHT22;52211;50.154;8.682;2023-03-20T18:40:44;14.20;48.80
65568;DHT22;52211;50.154;8.682;2023-03-20T18:43:17;14.10;48.70
65568;DHT22;52211;50.154;8.682;2023-03-20T18:45:44;14.10;48.80
65568;DHT22;52211;50.154;8.682;2023-03-20T18:48:14;14.10;48.90
65568;DHT22;52211;50.154;8.682;2023-03-20T18:50:46;14.10;49.00
65568;DHT22;52211;50.154;8.682;2023-03-20T18:53:18;14.00;48.90
65568;DHT22;52211;50.154;8.682;2023-03-20T18:55:46;14.00;48.90
65568;DHT22;52211;50.154;8.682;2023-03-20T18:58:23;14.00;48.90
65568;DHT22;52211;50.154;8.682;2023-03-20T19:00:54;13.90;48.80
65568;DHT22;52211;50.154;8.682;2023-03-20T19:03:22;13.90;49.10
65568;DHT22;52211;50.154;8.682;2023-03-20T19:05:54;13.80;49.10